Time;durP1;ratioP1;P1;durP2;ratioP2;P2;SDS_P1;SDS_P2;PMS_P1;PMS_P2;Temp;Humidity;BMP_temperature;BMP_pressure;BME280_temperature;BME280_humidity;BME280_pressure;Samples;Min_cycle;Max_cycle;Signal;HPM_P1;HPM_P2
2021/08/23 00:00:51;;;;;;;;;;;14.90;99.90;;;;;;5126309;27;19923;-64
2021/08/23 00:03:39;;;;;;;;;;;14.90;99.90;;;;;;5132952;27;19928;-66
2021/08/23 00:06:28;;;;;;;;;;;14.80;99.90;;;;;;5133986;27;19923;-66
2021/08/23 00:09:19;;;;;;;;;;;14.70;99.90;;;;;;5133928;27;19930;-65
2021/08/23 00:12:08;;;;;;;;;;;14.70;99.90;;;;;;5133065;27;19984;-65
2021/08/23 00:14:58;;;;;;;;;;;14.60;99.90;;;;;;5133660;27;19924;-67
2021/08/23 00:17:46;;;;;;;;;;;14.50;99.90;;;;;;5091896;28;19931;-68
2021/08/23 00:20:43;;;;;;;;;;;14.40;99.90;;;;;;5093684;28;20363;-65
2021/08/23 00:23:36;;;;;;;;;;;14.40;99.90;;;;;;5092057;28;19924;-65
2021/08/23 00:26:41;;;;;;;;;;;14.40;99.90;;;;;;5092499;28;19924;-65
2021/08/23 00:29:29;;;;;;;;;;;14.50;99.90;;;;;;5092023;28;20252;-68
2021/08/23 00:32:20;;;;;;;;;;;14.50;99.90;;;;;;5104243;28;19924;-65
2021/08/23 00:35:09;;;;;;;;;;;14.50;99.90;;;;;;5112021;28;20295;-65
2021/08/23 00:37:58;;;;;;;;;;;14.50;99.90;;;;;;5113106;28;20294;-67
2021/08/23 00:40:47;;;;;;;;;;;14.50;99.90;;;;;;5112093;28;19924;-68
2021/08/23 00:43:36;;;;;;;;;;;14.50;99.90;;;;;;5112300;28;19924;-68
2021/08/23 00:46:24;;;;;;;;;;;14.40;99.90;;;;;;5106057;28;19924;-66
2021/08/23 00:49:14;;;;;;;;;;;14.40;99.90;;;;;;5112583;28;19924;-66
2021/08/23 00:52:03;;;;;;;;;;;14.40;99.90;;;;;;5111965;28;19924;-67
2021/08/23 00:54:51;;;;;;;;;;;14.40;99.90;;;;;;5110672;28;19931;-66
2021/08/23 00:57:42;;;;;;;;;;;14.30;99.90;;;;;;5111704;28;19928;-65
2021/08/23 01:00:32;;;;;;;;;;;14.20;99.90;;;;;;5104697;28;19923;-66
2021/08/23 01:03:25;;;;;;;;;;;14.20;99.90;;;;;;5111707;28;19934;-65
2021/08/23 01:06:16;;;;;;;;;;;14.20;99.90;;;;;;5111865;28;19924;-66
2021/08/23 01:09:08;;;;;;;;;;;14.10;99.90;;;;;;5113350;28;19996;-65
2021/08/23 01:11:56;;;;;;;;;;;14.10;99.90;;;;;;5113243;27;19924;-65
2021/08/23 01:14:45;;;;;;;;;;;14.00;99.90;;;;;;5132682;27;19931;-65
2021/08/23 01:17:33;;;;;;;;;;;14.00;99.90;;;;;;5112563;28;20380;-68
2021/08/23 01:20:22;;;;;;;;;;;14.00;99.90;;;;;;5112337;28;19930;-68
2021/08/23 01:23:12;;;;;;;;;;;13.90;99.90;;;;;;5111829;28;19927;-65
2021/08/23 01:26:00;;;;;;;;;;;14.00;99.90;;;;;;5112920;28;19992;-66
2021/08/23 01:28:52;;;;;;;;;;;14.00;99.90;;;;;;5112890;28;19947;-68
2021/08/23 01:31:42;;;;;;;;;;;14.00;99.90;;;;;;5120414;27;20477;-65
2021/08/23 01:34:32;;;;;;;;;;;14.00;99.90;;;;;;5135133;27;19923;-66
2021/08/23 01:37:21;;;;;;;;;;;14.10;99.90;;;;;;5151586;27;20448;-67
2021/08/23 01:40:10;;;;;;;;;;;14.10;99.90;;;;;;5133032;27;19931;-65
2021/08/23 01:42:58;;;;;;;;;;;14.10;99.90;;;;;;5131235;27;19924;-65
2021/08/23 01:45:48;;;;;;;;;;;14.20;99.90;;;;;;5124639;27;19946;-65
2021/08/23 01:48:36;;;;;;;;;;;14.20;99.90;;;;;;5132780;27;20014;-66
2021/08/23 01:51:26;;;;;;;;;;;14.20;99.90;;;;;;5131815;27;20378;-68
2021/08/23 01:54:15;;;;;;;;;;;14.40;99.90;;;;;;5131029;27;19930;-65
2021/08/23 01:57:03;;;;;;;;;;;14.40;99.90;;;;;;5133892;27;19930;-65
2021/08/23 01:59:52;;;;;;;;;;;14.40;99.90;;;;;;5117774;27;20026;-65
2021/08/23 02:02:40;;;;;;;;;;;14.40;99.90;;;;;;5130943;27;20059;-66
2021/08/23 02:05:29;;;;;;;;;;;14.50;99.90;;;;;;5130465;27;19963;-66
2021/08/23 02:08:20;;;;;;;;;;;14.60;99.90;;;;;;5131343;27;19924;-65
2021/08/23 02:11:08;;;;;;;;;;;14.70;99.90;;;;;;5131837;27;20378;-66
2021/08/23 02:13:57;;;;;;;;;;;14.80;99.90;;;;;;5131086;27;19924;-66
2021/08/23 02:16:45;;;;;;;;;;;14.80;99.90;;;;;;5124920;27;19923;-66
2021/08/23 02:19:33;;;;;;;;;;;14.80;99.90;;;;;;5132292;28;20374;-66
2021/08/23 02:22:22;;;;;;;;;;;14.90;99.90;;;;;;5132031;28;19931;-67
2021/08/23 02:25:12;;;;;;;;;;;14.90;99.90;;;;;;5132624;28;19927;-65
2021/08/23 02:28:02;;;;;;;;;;;15.00;99.90;;;;;;5152286;28;19915;-66
2021/08/23 02:30:51;;;;;;;;;;;15.00;99.90;;;;;;5125985;28;19988;-66
2021/08/23 02:33:39;;;;;;;;;;;15.10;99.90;;;;;;5131465;28;19923;-65
2021/08/23 02:36:28;;;;;;;;;;;15.10;99.90;;;;;;5131798;28;19923;-66
2021/08/23 02:39:16;;;;;;;;;;;15.10;99.90;;;;;;5131003;28;19923;-67
2021/08/23 02:42:06;;;;;;;;;;;15.20;99.90;;;;;;5121801;28;19927;-65
2021/08/23 02:44:55;;;;;;;;;;;15.10;99.90;;;;;;5131183;28;19931;-66
2021/08/23 02:47:43;;;;;;;;;;;15.10;99.90;;;;;;5130821;28;19930;-65
2021/08/23 02:50:32;;;;;;;;;;;15.10;99.90;;;;;;5131763;28;19923;-66
2021/08/23 02:53:20;;;;;;;;;;;15.10;99.90;;;;;;5131183;28;19946;-65
2021/08/23 02:56:08;;;;;;;;;;;15.10;99.90;;;;;;5131395;28;19931;-66
2021/08/23 02:58:58;;;;;;;;;;;15.10;99.90;;;;;;5131928;28;20399;-66
2021/08/23 03:01:47;;;;;;;;;;;15.10;99.90;;;;;;5124533;28;19931;-66
2021/08/23 03:04:36;;;;;;;;;;;15.20;99.90;;;;;;5129939;27;19993;-66
2021/08/23 03:07:24;;;;;;;;;;;15.10;99.90;;;;;;5134987;27;19964;-65
2021/08/23 03:10:13;;;;;;;;;;;15.10;99.90;;;;;;5135613;27;20014;-67
2021/08/23 03:13:01;;;;;;;;;;;15.00;99.90;;;;;;5135302;27;19931;-65
2021/08/23 03:15:51;;;;;;;;;;;15.00;99.90;;;;;;5128709;27;20061;-66
2021/08/23 03:18:40;;;;;;;;;;;15.00;99.90;;;;;;5135262;27;19977;-66
2021/08/23 03:21:29;;;;;;;;;;;14.90;99.90;;;;;;5134301;27;19923;-67
2021/08/23 03:24:18;;;;;;;;;;;14.90;99.90;;;;;;5133890;27;19938;-65
2021/08/23 03:27:07;;;;;;;;;;;15.00;99.90;;;;;;5120141;27;19955;-65
2021/08/23 03:29:56;;;;;;;;;;;15.00;99.90;;;;;;5135059;27;19927;-68
2021/08/23 03:32:46;;;;;;;;;;;15.10;99.90;;;;;;5134721;27;19931;-68
2021/08/23 03:35:34;;;;;;;;;;;15.10;99.90;;;;;;5133360;27;20302;-65
2021/08/23 03:38:22;;;;;;;;;;;15.10;99.90;;;;;;5134566;27;19967;-66
2021/08/23 03:44:24;;;;;;;;;;;15.20;99.90;;;;;;5136040;27;20375;-65
2021/08/23 03:47:13;;;;;;;;;;;15.20;99.90;;;;;;5129595;27;19984;-65
2021/08/23 03:50:03;;;;;;;;;;;15.30;99.90;;;;;;5132680;27;19980;-66
2021/08/23 03:52:51;;;;;;;;;;;15.30;99.90;;;;;;5132870;27;20011;-65
2021/08/23 03:55:39;;;;;;;;;;;15.30;99.90;;;;;;5132983;27;19931;-65
2021/08/23 03:58:28;;;;;;;;;;;15.30;99.90;;;;;;5134179;27;19923;-68
2021/08/23 04:01:16;;;;;;;;;;;15.30;99.90;;;;;;5127919;27;20383;-65
2021/08/23 04:04:05;;;;;;;;;;;15.30;99.90;;;;;;5132925;27;19930;-66
2021/08/23 04:06:55;;;;;;;;;;;15.30;99.90;;;;;;5132119;27;19924;-66
2021/08/23 04:09:44;;;;;;;;;;;15.30;99.90;;;;;;5134597;27;20018;-65
2021/08/23 04:12:33;;;;;;;;;;;15.30;99.90;;;;;;5121225;27;19924;-68
2021/08/23 04:15:21;;;;;;;;;;;15.30;99.90;;;;;;5105819;28;19930;-65
2021/08/23 04:18:09;;;;;;;;;;;15.20;99.90;;;;;;5100204;28;19971;-66
2021/08/23 04:20:58;;;;;;;;;;;15.30;99.90;;;;;;5112323;28;19924;-68
2021/08/23 04:23:48;;;;;;;;;;;15.20;99.90;;;;;;5112909;28;20298;-65
2021/08/23 04:26:36;;;;;;;;;;;15.20;99.90;;;;;;5112752;28;19924;-66
2021/08/23 04:29:25;;;;;;;;;;;15.20;99.90;;;;;;5113802;28;20002;-65
2021/08/23 04:32:14;;;;;;;;;;;15.20;99.90;;;;;;5105740;28;19924;-65
2021/08/23 04:35:03;;;;;;;;;;;15.20;99.90;;;;;;5097378;28;19934;-66
2021/08/23 04:37:51;;;;;;;;;;;15.30;99.90;;;;;;5112720;28;19924;-65
2021/08/23 04:40:44;;;;;;;;;;;15.30;99.90;;;;;;5112973;28;19931;-66
2021/08/23 04:43:32;;;;;;;;;;;15.40;99.90;;;;;;5112730;28;19924;-65
2021/08/23 04:46:23;;;;;;;;;;;15.30;99.90;;;;;;5100595;28;19925;-65
2021/08/23 04:49:11;;;;;;;;;;;15.30;99.90;;;;;;5112289;28;20311;-66
2021/08/23 04:51:59;;;;;;;;;;;15.30;99.90;;;;;;5112678;28;19924;-66
2021/08/23 04:54:48;;;;;;;;;;;15.30;99.90;;;;;;5113287;28;19924;-66
2021/08/23 04:57:39;;;;;;;;;;;15.30;99.90;;;;;;5112234;28;19923;-66
2021/08/23 05:00:27;;;;;;;;;;;15.20;99.90;;;;;;5105711;28;19924;-66
2021/08/23 05:03:16;;;;;;;;;;;15.30;99.90;;;;;;5111523;28;19924;-65
2021/08/23 05:06:05;;;;;;;;;;;15.30;99.90;;;;;;5111731;28;19923;-65
2021/08/23 05:08:54;;;;;;;;;;;15.30;99.90;;;;;;5098221;28;20391;-65
2021/08/23 05:11:44;;;;;;;;;;;15.40;99.90;;;;;;5111677;28;19928;-66
2021/08/23 05:14:33;;;;;;;;;;;15.40;99.90;;;;;;5133775;28;19979;-65
2021/08/23 05:17:22;;;;;;;;;;;15.40;99.90;;;;;;5106365;28;19924;-66
2021/08/23 05:20:11;;;;;;;;;;;15.40;99.90;;;;;;5111912;28;19930;-66
2021/08/23 05:23:01;;;;;;;;;;;15.50;99.90;;;;;;5112244;28;20300;-65
2021/08/23 05:25:49;;;;;;;;;;;15.50;99.90;;;;;;5098596;28;20391;-65
2021/08/23 05:28:39;;;;;;;;;;;15.50;99.90;;;;;;5111106;28;20395;-68
2021/08/23 05:31:30;;;;;;;;;;;15.60;99.90;;;;;;5100888;28;19924;-66
2021/08/23 05:34:18;;;;;;;;;;;15.70;99.90;;;;;;5112569;28;19923;-65
2021/08/23 05:37:07;;;;;;;;;;;15.70;99.90;;;;;;5112221;28;20003;-68
2021/08/23 05:39:55;;;;;;;;;;;15.70;99.90;;;;;;5113068;28;19923;-66
2021/08/23 05:42:43;;;;;;;;;;;15.70;99.90;;;;;;5112092;28;19932;-66
2021/08/23 05:45:33;;;;;;;;;;;15.70;99.90;;;;;;5090604;28;19981;-65
2021/08/23 05:48:22;;;;;;;;;;;15.70;99.90;;;;;;5112929;28;19924;-68
2021/08/23 05:51:14;;;;;;;;;;;15.70;99.90;;;;;;5113326;28;20363;-65
2021/08/23 05:54:02;;;;;;;;;;;15.70;99.90;;;;;;5112019;28;19924;-65
2021/08/23 05:56:52;;;;;;;;;;;15.60;99.90;;;;;;5112736;28;19973;-65
2021/08/23 05:59:40;;;;;;;;;;;15.60;99.90;;;;;;5111067;28;19946;-66
2021/08/23 06:02:31;;;;;;;;;;;15.50;99.90;;;;;;5110839;28;20367;-65
2021/08/23 06:05:22;;;;;;;;;;;15.50;99.90;;;;;;5113402;28;20022;-65
2021/08/23 06:08:11;;;;;;;;;;;15.50;99.90;;;;;;5112077;28;20039;-67
2021/08/23 06:10:59;;;;;;;;;;;15.50;99.90;;;;;;5113780;28;20372;-65
2021/08/23 06:13:48;;;;;;;;;;;15.50;99.90;;;;;;5115630;28;19924;-65
2021/08/23 06:16:36;;;;;;;;;;;15.50;99.90;;;;;;5117721;28;19969;-65
2021/08/23 06:19:25;;;;;;;;;;;15.60;99.90;;;;;;5119426;28;19973;-65
2021/08/23 06:22:14;;;;;;;;;;;15.70;99.90;;;;;;5110541;28;19930;-65
2021/08/23 06:25:03;;;;;;;;;;;15.80;99.90;;;;;;5111205;28;19939;-65
2021/08/23 06:27:52;;;;;;;;;;;15.80;99.90;;;;;;5112322;28;19931;-66
2021/08/23 06:30:41;;;;;;;;;;;15.90;99.90;;;;;;5105603;28;19924;-65
2021/08/23 06:33:30;;;;;;;;;;;15.90;99.90;;;;;;5118572;28;19963;-65
2021/08/23 06:36:18;;;;;;;;;;;16.00;99.90;;;;;;5121149;28;19947;-66
2021/08/23 06:39:08;;;;;;;;;;;16.10;99.90;;;;;;5120168;28;20364;-64
2021/08/23 06:41:57;;;;;;;;;;;16.20;99.90;;;;;;5136927;28;19980;-65
2021/08/23 06:44:45;;;;;;;;;;;16.10;99.90;;;;;;5133822;28;19927;-65
2021/08/23 06:47:34;;;;;;;;;;;16.10;99.90;;;;;;5130809;28;19923;-66
2021/08/23 06:50:22;;;;;;;;;;;16.00;99.90;;;;;;5131255;28;19924;-66
2021/08/23 06:53:11;;;;;;;;;;;16.00;99.90;;;;;;5131233;28;19924;-66
2021/08/23 06:56:00;;;;;;;;;;;16.00;99.90;;;;;;5129448;28;19923;-66
2021/08/23 06:58:49;;;;;;;;;;;16.00;99.90;;;;;;5127966;28;19927;-66
2021/08/23 07:01:37;;;;;;;;;;;16.00;99.90;;;;;;5121834;28;19931;-65
2021/08/23 07:04:26;;;;;;;;;;;16.10;99.90;;;;;;5125024;28;19934;-65
2021/08/23 07:07:15;;;;;;;;;;;16.20;99.90;;;;;;5124827;28;19924;-66
2021/08/23 07:10:04;;;;;;;;;;;16.20;99.90;;;;;;5123631;28;19924;-67
2021/08/23 07:12:53;;;;;;;;;;;16.30;99.90;;;;;;5137408;27;19924;-66
2021/08/23 07:15:42;;;;;;;;;;;16.40;99.90;;;;;;5139389;27;19923;-68
2021/08/23 07:18:31;;;;;;;;;;;16.50;99.90;;;;;;5144659;27;19924;-65
2021/08/23 07:21:20;;;;;;;;;;;16.50;99.90;;;;;;5144080;27;19928;-66
2021/08/23 07:24:10;;;;;;;;;;;16.50;99.90;;;;;;5144546;27;19924;-67
2021/08/23 07:26:58;;;;;;;;;;;16.50;99.90;;;;;;5142843;27;20397;-67
2021/08/23 07:29:48;;;;;;;;;;;16.50;99.90;;;;;;5142176;27;20274;-66
2021/08/23 07:32:40;;;;;;;;;;;16.70;99.90;;;;;;5116790;28;20267;-66
2021/08/23 07:35:28;;;;;;;;;;;16.80;99.90;;;;;;5115955;28;19930;-65
2021/08/23 07:38:17;;;;;;;;;;;17.00;99.90;;;;;;5115439;28;19947;-65
2021/08/23 07:41:05;;;;;;;;;;;17.00;99.90;;;;;;5115654;28;20285;-65
2021/08/23 07:43:54;;;;;;;;;;;16.90;99.90;;;;;;5115158;28;19924;-68
2021/08/23 07:46:44;;;;;;;;;;;16.90;99.90;;;;;;5121677;27;19976;-66
2021/08/23 07:49:33;;;;;;;;;;;16.80;99.90;;;;;;5135686;27;19931;-66
2021/08/23 07:52:22;;;;;;;;;;;16.70;99.90;;;;;;5133647;27;19931;-65
2021/08/23 07:55:11;;;;;;;;;;;16.70;99.90;;;;;;5134852;27;19923;-65
2021/08/23 07:58:00;;;;;;;;;;;16.70;99.90;;;;;;5136068;27;19927;-65
2021/08/23 08:00:53;;;;;;;;;;;16.70;99.90;;;;;;5132147;27;19923;-65
2021/08/23 08:03:43;;;;;;;;;;;16.80;99.90;;;;;;5153698;27;19945;-68
2021/08/23 08:06:31;;;;;;;;;;;16.90;99.90;;;;;;5134619;27;20341;-67
2021/08/23 08:09:21;;;;;;;;;;;16.90;99.90;;;;;;5134194;27;19923;-65
2021/08/23 08:12:09;;;;;;;;;;;16.90;99.90;;;;;;5133431;27;19930;-66
2021/08/23 08:14:59;;;;;;;;;;;17.00;99.90;;;;;;5135601;27;19967;-68
2021/08/23 08:17:47;;;;;;;;;;;17.00;99.90;;;;;;5133959;27;19924;-68
2021/08/23 08:20:37;;;;;;;;;;;17.00;99.90;;;;;;5133242;27;20019;-67
2021/08/23 08:23:26;;;;;;;;;;;16.90;99.90;;;;;;5134913;27;20056;-65
2021/08/23 08:26:14;;;;;;;;;;;16.90;99.90;;;;;;5134090;27;19924;-69
2021/08/23 08:29:04;;;;;;;;;;;17.00;99.90;;;;;;5133255;27;19930;-65
2021/08/23 08:31:53;;;;;;;;;;;17.20;99.90;;;;;;5128100;27;19927;-66
2021/08/23 08:34:41;;;;;;;;;;;17.40;99.90;;;;;;5132846;27;19923;-65
2021/08/23 08:37:31;;;;;;;;;;;17.50;99.90;;;;;;5134801;27;19923;-65
2021/08/23 08:40:19;;;;;;;;;;;17.50;99.90;;;;;;5134466;27;19927;-66
2021/08/23 08:43:08;;;;;;;;;;;17.50;99.90;;;;;;5133916;27;19924;-65
2021/08/23 08:45:57;;;;;;;;;;;17.50;99.90;;;;;;5123564;27;19928;-66
2021/08/23 08:48:46;;;;;;;;;;;17.60;99.90;;;;;;5133173;27;19923;-65
2021/08/23 08:51:36;;;;;;;;;;;17.60;99.90;;;;;;5134376;27;20401;-65
2021/08/23 08:54:26;;;;;;;;;;;17.70;99.90;;;;;;5133563;27;20299;-66
2021/08/23 08:57:14;;;;;;;;;;;17.60;99.90;;;;;;5134089;27;19923;-65
2021/08/23 09:00:03;;;;;;;;;;;17.60;99.90;;;;;;5131383;27;19993;-65
2021/08/23 09:02:55;;;;;;;;;;;17.60;99.90;;;;;;5117003;27;20122;-66
2021/08/23 09:05:52;;;;;;;;;;;17.80;99.90;;;;;;5132460;27;20037;-65
2021/08/23 09:08:41;;;;;;;;;;;17.90;99.90;;;;;;5133173;27;20018;-62
2021/08/23 09:11:31;;;;;;;;;;;17.90;99.90;;;;;;5133230;27;19924;-66
2021/08/23 09:14:20;;;;;;;;;;;17.90;99.90;;;;;;5134524;27;20371;-66
2021/08/23 09:17:09;;;;;;;;;;;17.80;99.90;;;;;;5106745;28;19924;-66
2021/08/23 09:19:58;;;;;;;;;;;17.90;99.90;;;;;;5111764;28;19928;-65
2021/08/23 09:22:47;;;;;;;;;;;18.00;99.90;;;;;;5111080;28;20415;-68
2021/08/23 09:25:35;;;;;;;;;;;18.00;99.90;;;;;;5112372;28;19931;-66
2021/08/23 09:28:28;;;;;;;;;;;18.00;99.90;;;;;;5112791;28;19928;-63
2021/08/23 09:31:24;;;;;;;;;;;18.00;99.90;;;;;;5116465;27;20049;-64
2021/08/23 09:34:13;;;;;;;;;;;18.30;99.90;;;;;;5132917;27;19923;-64
2021/08/23 09:37:02;;;;;;;;;;;18.40;99.90;;;;;;5132935;27;19927;-63
2021/08/23 09:39:50;;;;;;;;;;;18.30;99.90;;;;;;5132593;27;19924;-63
2021/08/23 09:42:39;;;;;;;;;;;18.30;99.90;;;;;;5133229;27;19931;-64
2021/08/23 09:45:30;;;;;;;;;;;18.40;99.90;;;;;;5126051;27;20378;-67
2021/08/23 09:48:18;;;;;;;;;;;18.50;99.90;;;;;;5132981;27;20371;-67
2021/08/23 09:51:07;;;;;;;;;;;18.60;99.90;;;;;;5133252;27;20398;-64
2021/08/23 09:54:09;;;;;;;;;;;18.90;99.90;;;;;;5132630;27;19924;-64
2021/08/23 09:56:57;;;;;;;;;;;19.00;99.90;;;;;;5132276;27;20000;-64
2021/08/23 09:59:45;;;;;;;;;;;18.90;99.90;;;;;;5131815;27;19923;-67
2021/08/23 10:02:35;;;;;;;;;;;18.70;99.90;;;;;;5131791;27;19923;-64
2021/08/23 10:05:24;;;;;;;;;;;18.60;99.90;;;;;;5132494;27;19968;-65
2021/08/23 10:08:15;;;;;;;;;;;18.40;99.90;;;;;;5132967;27;19929;-66
2021/08/23 10:11:04;;;;;;;;;;;18.30;99.90;;;;;;5132653;27;19931;-64
2021/08/23 10:13:52;;;;;;;;;;;18.30;99.90;;;;;;5112973;28;19930;-64
2021/08/23 10:16:41;;;;;;;;;;;18.30;99.90;;;;;;5106894;28;19930;-65
2021/08/23 10:19:30;;;;;;;;;;;18.30;99.90;;;;;;5108718;28;19924;-65
2021/08/23 10:22:19;;;;;;;;;;;18.60;99.90;;;;;;5112329;28;19924;-64
2021/08/23 10:25:08;;;;;;;;;;;18.90;99.90;;;;;;5113669;28;19934;-64
2021/08/23 10:28:04;;;;;;;;;;;19.20;99.90;;;;;;5111825;28;19985;-64
2021/08/23 10:30:53;;;;;;;;;;;19.50;99.90;;;;;;5105839;28;19923;-65
2021/08/23 10:33:43;;;;;;;;;;;19.70;99.90;;;;;;5111044;28;19924;-63
2021/08/23 10:36:34;;;;;;;;;;;19.80;99.90;;;;;;5113788;28;19923;-67
2021/08/23 10:39:24;;;;;;;;;;;20.10;99.90;;;;;;5110899;28;19924;-67
2021/08/23 10:45:27;;;;;;;;;;;21.30;99.90;;;;;;5097266;28;19924;-64
2021/08/23 10:48:16;;;;;;;;;;;21.20;99.90;;;;;;5092997;28;19958;-64
2021/08/23 10:51:05;;;;;;;;;;;21.20;99.90;;;;;;5106388;28;19946;-66
2021/08/23 10:53:54;;;;;;;;;;;21.50;99.90;;;;;;5099916;28;19932;-65
2021/08/23 10:56:43;;;;;;;;;;;21.70;99.90;;;;;;5105080;28;19960;-64
